Time;durP1;ratioP1;P1;durP2;ratioP2;P2;SDS_P1;SDS_P2;PMS_P1;PMS_P2;Temp;Humidity;BMP_temperature;BMP_pressure;BME280_temperature;BME280_humidity;BME280_pressure;Samples;Min_cycle;Max_cycle;Signal;HPM_P1;HPM_P2
2021/12/21 00:04:52;;;;;;;24.70;11.53;;;;;;;-1.72;90.69;99542.68;3936368;89;21080;-84
2021/12/21 00:10:55;;;;;;;23.57;9.13;;;;;;;-1.71;90.78;99542.95;3937862;89;21057;-84
2021/12/21 00:17:14;;;;;;;23.10;9.67;;;;;;;-1.75;90.34;99544.05;3938499;90;21069;-84
2021/12/21 00:36:53;;;;;;;31.40;13.45;;;;;;;-1.68;90.88;99559.84;3941132;89;21598;-84
2021/12/21 00:42:54;;;;;;;25.87;11.70;;;;;;;-1.72;90.79;99561.47;3934638;89;21111;-85
2021/12/21 00:55:39;;;;;;;24.70;10.80;;;;;;;-1.82;90.74;99581.70;3972396;86;21049;-85
2021/12/21 01:01:43;;;;;;;23.60;9.23;;;;;;;-1.83;90.95;99574.17;4082250;87;21649;-84
2021/12/21 01:22:35;;;;;;;16.50;8.03;;;;;;;-1.95;90.76;99582.31;3999612;87;21034;-85
2021/12/21 01:29:05;;;;;;;18.97;8.40;;;;;;;-1.93;90.88;99580.16;3858634;91;21227;-83
2021/12/21 01:35:43;;;;;;;20.67;9.20;;;;;;;-1.93;90.98;99590.90;3868342;91;21193;-84
2021/12/21 02:09:37;;;;;;;24.50;10.73;;;;;;;-1.98;91.14;99586.91;3916058;90;21162;-84
2021/12/21 02:23:38;;;;;;;23.27;11.27;;;;;;;-1.96;91.07;99585.53;3865338;90;21607;-85
2021/12/21 02:29:49;;;;;;;25.20;10.87;;;;;;;-1.98;90.87;99581.53;3947063;90;21174;-84
2021/12/21 02:35:52;;;;;;;24.77;11.67;;;;;;;-1.98;91.11;99583.69;3957718;86;21161;-84
2021/12/21 02:42:02;;;;;;;26.10;12.27;;;;;;;-2.00;90.79;99581.00;4080381;86;21105;-84
2021/12/21 02:48:19;;;;;;;31.83;11.53;;;;;;;-1.99;91.12;99577.27;4077490;86;20993;-84
2021/12/21 02:54:21;;;;;;;26.20;12.37;;;;;;;-2.02;90.82;99577.27;4082593;86;21089;-83
2021/12/21 03:14:08;;;;;;;26.53;12.03;;;;;;;-1.99;91.14;99579.95;4009674;88;21114;-83
2021/12/21 03:20:34;;;;;;;27.87;12.97;;;;;;;-2.03;91.07;99578.35;3929303;89;21219;-84
2021/12/21 03:26:36;;;;;;;26.73;12.33;;;;;;;-2.07;91.14;99571.14;3914122;89;21074;-83
2021/12/21 03:32:56;;;;;;;26.67;11.90;;;;;;;-2.09;91.01;99573.30;3930532;89;21101;-84
2021/12/21 03:39:16;;;;;;;;;;;;;;;;;;;;;
2021/12/21 03:45:56;;;;;;;25.83;11.70;;;;;;;-2.06;91.26;99574.89;4103783;85;21053;-84
2021/12/21 03:53:05;;;;;;;27.37;11.00;;;;;;;-2.09;91.15;99564.72;3971630;88;21031;-85
2021/12/21 03:59:07;;;;;;;24.33;10.73;;;;;;;-2.08;91.25;99574.36;3884122;90;21141;-84
2021/12/21 04:18:58;;;;;;;26.33;12.13;;;;;;;-2.18;91.12;99592.41;3917172;89;21071;-84
2021/12/21 04:32:08;;;;;;;21.67;11.13;;;;;;;-2.12;91.38;99594.78;4006475;88;21570;-83
2021/12/21 04:52:29;;;;;;;26.13;11.83;;;;;;;-2.09;91.28;99600.13;3940127;88;21041;-84
2021/12/21 05:06:07;;;;;;;34.57;14.27;;;;;;;-2.09;91.47;99606.30;3971458;85;21582;-84
2021/12/21 05:33:28;;;;;;;31.90;14.20;;;;;;;-2.03;91.80;99614.57;4033668;87;21088;-84
2021/12/21 05:47:21;;;;;;;35.63;17.97;;;;;;;-2.00;92.01;99621.25;4037410;87;21102;-84
2021/12/21 05:53:22;;;;;;;41.43;20.80;;;;;;;-2.01;92.08;99625.84;4035606;87;21094;-84
2021/12/21 06:00:00;;;;;;;42.33;19.03;;;;;;;-1.99;91.99;99627.67;4038175;87;22168;-85
2021/12/21 06:33:31;;;;;;;28.00;14.40;;;;;;;-1.89;92.78;99637.02;4038715;87;21568;-84
2021/12/21 06:39:33;;;;;;;27.77;14.47;;;;;;;-1.80;92.88;99644.73;4088729;87;21085;-84
2021/12/21 06:52:23;;;;;;;47.20;20.00;;;;;;;-1.77;92.71;99652.79;4028920;87;21056;-84
2021/12/21 06:58:25;;;;;;;33.90;15.67;;;;;;;-1.86;92.54;99654.44;4038184;87;21904;-85
2021/12/21 07:04:35;;;;;;;37.23;16.43;;;;;;;-2.00;92.55;99666.33;4048649;85;21138;-85
2021/12/21 07:10:39;;;;;;;17.37;8.43;;;;;;;-2.12;92.87;99672.58;4039109;87;21023;-84
2021/12/21 07:23:33;;;;;;;25.40;13.20;;;;;;;-2.53;93.46;99691.77;4042673;87;21074;-82
2021/12/21 07:29:36;;;;;;;23.30;11.40;;;;;;;-2.51;94.30;99703.02;4040920;87;22042;-82
2021/12/21 07:35:38;;;;;;;26.23;12.70;;;;;;;-2.42;94.62;99702.19;4063787;87;21054;-82
2021/12/21 07:41:41;;;;;;;25.70;9.00;;;;;;;-2.35;94.32;99710.73;4048289;86;21058;-83
2021/12/21 07:47:51;;;;;;;21.43;10.13;;;;;;;-2.28;94.21;99718.49;4039266;87;21128;-82
2021/12/21 07:53:53;;;;;;;20.23;8.60;;;;;;;-2.25;94.23;99712.58;4049717;87;21899;-82
2021/12/21 07:59:55;;;;;;;11.13;5.70;;;;;;;-2.13;94.16;99717.11;4040554;87;21150;-81
2021/12/21 08:05:58;;;;;;;12.97;6.23;;;;;;;-2.09;93.68;99727.55;4053638;85;21096;-82
2021/12/21 08:12:16;;;;;;;17.63;8.33;;;;;;;-2.01;93.86;99726.45;4075273;86;21077;-81
2021/12/21 08:18:17;;;;;;;16.27;8.63;;;;;;;-1.95;93.67;99728.55;4078763;86;21092;-81
2021/12/21 08:24:18;;;;;;;16.90;7.13;;;;;;;-1.88;93.46;99729.85;4080951;86;21104;-83
2021/12/21 08:30:20;;;;;;;14.13;6.80;;;;;;;-1.75;93.34;99731.94;4073290;85;21652;-83
2021/12/21 08:36:21;;;;;;;13.47;6.10;;;;;;;-1.53;93.51;99722.70;4076238;86;21408;-82
2021/12/21 08:42:27;;;;;;;14.13;6.50;;;;;;;-1.38;92.53;99729.30;4091365;86;21052;-82
2021/12/21 08:48:50;;;;;;;12.33;5.50;;;;;;;-1.34;92.00;99737.86;4083603;85;21026;-82
2021/12/21 08:55:18;;;;;;;8.30;3.83;;;;;;;-1.22;91.79;99750.39;4091335;85;21593;-82
2021/12/21 09:01:19;;;;;;;12.70;4.87;;;;;;;-1.05;91.30;99754.83;4066222;86;21011;-82
2021/12/21 09:07:42;;;;;;;11.55;4.75;;;;;;;-0.92;91.32;99758.22;4098828;85;21093;-81
2021/12/21 09:13:43;;;;;;;13.80;5.97;;;;;;;-0.67;91.46;99756.66;4091661;86;21617;-82
2021/12/21 09:27:14;;;;;;;16.05;7.20;;;;;;;1.23;92.01;99752.55;4066649;86;21133;-82
2021/12/21 09:33:20;;;;;;;10.78;6.45;;;;;;;1.59;89.95;99752.19;4056373;85;21020;-83
2021/12/21 09:39:22;;;;;;;12.47;6.95;;;;;;;1.71;89.80;99757.11;4082360;85;21050;-82
2021/12/21 09:45:26;;;;;;;13.45;6.62;;;;;;;2.30;88.88;99757.78;4081099;85;21523;-83
2021/12/21 09:51:30;;;;;;;15.25;7.42;;;;;;;2.84;90.66;99759.03;4090240;86;21034;-84
2021/12/21 10:38:05;;;;;;;10.50;4.60;;;;;;;1.67;87.26;99759.59;4101138;86;21054;-83
2021/12/21 10:44:52;;;;;;;7.55;3.35;;;;;;;2.15;85.03;99758.11;4048564;86;21580;-84
2021/12/21 10:51:18;;;;;;;21.70;7.75;;;;;;;2.13;83.91;99759.52;4043932;86;21079;-84
2021/12/21 10:57:49;;;;;;;14.03;7.42;;;;;;;0.97;82.93;99759.47;4003732;87;21189;-84
2021/12/21 11:04:21;;;;;;;12.60;6.55;;;;;;;0.26;83.53;99754.81;3968986;87;21096;-84
2021/12/21 11:25:18;;;;;;;8.85;3.62;;;;;;;0.01;83.03;99747.87;3914823;88;21136;-84
2021/12/21 11:45:45;;;;;;;7.40;2.65;;;;;;;0.06;81.38;99738.92;4067701;86;21509;-85
2021/12/21 11:51:47;;;;;;;6.12;2.12;;;;;;;-0.37;79.71;99746.14;4061848;86;21362;-84
2021/12/21 12:12:38;;;;;;;30.60;10.70;;;;;;;-0.90;78.62;99751.22;3883168;90;21178;-83
2021/12/21 12:25:59;;;;;;;38.48;9.28;;;;;;;-0.98;78.31;99755.85;3980833;87;21668;-85
2021/12/21 12:38:44;;;;;;;3.35;1.80;;;;;;;-0.33;77.73;99742.59;3899967;90;21179;-85
2021/12/21 12:44:56;;;;;;;4.37;1.70;;;;;;;-0.05;76.99;99743.64;3888419;90;21238;-85
2021/12/21 12:51:36;;;;;;;5.25;2.27;;;;;;;0.12;76.55;99751.23;3887324;90;21070;-85
2021/12/21 13:18:53;;;;;;;6.62;2.30;;;;;;;-0.86;75.94;99754.97;3975020;88;21145;-85
2021/12/21 14:15:46;;;;;;;7.25;3.60;;;;;;;-1.38;77.06;99792.42;4095348;85;21077;-83
2021/12/21 14:21:58;;;;;;;7.53;3.10;;;;;;;-1.45;76.50;99783.32;4111648;85;21132;-83
2021/12/21 15:02:04;;;;;;;39.47;14.83;;;;;;;-2.81;76.29;99790.98;3806861;92;21088;-84
2021/12/21 15:08:31;;;;;;;39.00;14.70;;;;;;;-2.86;77.14;99790.98;3904254;86;52724;-83
2021/12/21 15:14:52;;;;;;;51.13;20.53;;;;;;;-2.70;76.77;99791.25;4007328;87;21067;-83
2021/12/21 15:21:31;;;;;;;56.67;21.93;;;;;;;-2.87;76.66;99788.05;4000835;87;21198;-84
2021/12/21 15:28:04;;;;;;;51.43;20.70;;;;;;;-3.12;76.68;99789.90;3964052;88;21548;-84
2021/12/21 15:34:40;;;;;;;52.50;20.20;;;;;;;-3.37;76.77;99792.80;3936371;89;21054;-83
2021/12/21 15:40:53;;;;;;;39.88;16.97;;;;;;;-3.31;77.29;99797.64;3982578;88;21084;-83
2021/12/21 15:47:47;;;;;;;48.13;19.70;;;;;;;-3.32;77.20;99796.05;3945849;90;21100;-83
2021/12/21 15:54:27;;;;;;;45.60;20.27;;;;;;;-3.47;77.06;99802.16;3947812;90;21098;-82
2021/12/21 16:01:17;;;;;;;51.67;19.83;;;;;;;-3.52;77.67;99797.31;3902690;88;21686;-82
2021/12/21 16:14:06;;;;;;;51.27;19.93;;;;;;;-3.96;77.15;99810.83;3982604;88;21032;-83
2021/12/21 16:20:18;;;;;;;36.10;15.57;;;;;;;-4.26;77.27;99822.70;3902141;90;21091;-83
2021/12/21 16:26:20;;;;;;;49.23;19.30;;;;;;;-4.49;77.36;99818.53;3901436;89;21118;-82
2021/12/21 16:32:22;;;;;;;47.50;18.27;;;;;;;-4.57;77.87;99819.01;3945883;90;21042;-82
2021/12/21 16:38:26;;;;;;;43.03;18.73;;;;;;;-4.62;78.17;99818.19;3938097;89;21106;-82
2021/12/21 16:44:31;;;;;;;47.40;17.90;;;;;;;-4.59;78.68;99819.00;3927982;89;21015;-82
2021/12/21 16:50:41;;;;;;;48.70;19.03;;;;;;;-4.46;79.78;99822.58;3975710;88;21135;-82
2021/12/21 16:56:56;;;;;;;56.97;23.10;;;;;;;-4.28;79.94;99818.95;3991782;87;21089;-81
2021/12/21 17:03:00;;;;;;;58.17;23.07;;;;;;;-4.14;79.47;99819.28;3990350;88;21614;-83
2021/12/21 17:09:04;;;;;;;60.20;24.37;;;;;;;-4.11;79.67;99821.44;3993290;88;21561;-82
2021/12/21 17:15:16;;;;;;;94.47;38.13;;;;;;;-4.13;79.58;99821.70;4004748;87;23514;-82
2021/12/21 17:21:19;;;;;;;90.10;35.50;;;;;;;-4.16;79.90;99813.38;3994162;88;21083;-81
2021/12/21 17:27:21;;;;;;;70.57;26.50;;;;;;;-4.13;79.69;99817.69;4007722;88;21142;-81
2021/12/21 17:40:31;;;;;;;104.43;43.50;;;;;;;-4.01;80.80;99815.59;3990245;88;21097;-81
2021/12/21 17:46:33;;;;;;;91.63;38.60;;;;;;;-3.97;79.87;99806.00;3990016;88;21014;-82
2021/12/21 17:59:36;;;;;;;94.23;41.23;;;;;;;-3.98;81.09;99818.30;4014173;86;21047;-81
2021/12/21 18:05:38;;;;;;;119.03;43.20;;;;;;;-4.02;80.71;99808.65;4016424;87;21123;-81
2021/12/21 18:11:40;;;;;;;105.53;42.23;;;;;;;-3.99;81.20;99816.15;4005712;87;21810;-81
2021/12/21 18:17:42;;;;;;;101.07;39.83;;;;;;;-3.95;81.37;99822.60;4005002;87;21102;-82
2021/12/21 18:23:51;;;;;;;104.03;40.80;;;;;;;-3.91;81.56;99819.67;4005207;87;21094;-80
2021/12/21 18:29:52;;;;;;;96.33;39.23;;;;;;;-3.94;81.64;99815.36;4017747;87;21022;-81
2021/12/21 18:36:02;;;;;;;78.30;35.97;;;;;;;-3.94;81.83;99822.86;4004861;87;21177;-81
2021/12/21 18:42:05;;;;;;;94.40;38.87;;;;;;;-4.11;80.64;99818.23;4024324;86;21466;-82
2021/12/21 18:48:06;;;;;;;88.80;37.53;;;;;;;-4.20;81.01;99816.31;4033396;86;21118;-81
2021/12/21 18:54:07;;;;;;;82.30;34.63;;;;;;;-4.23;81.41;99818.17;4040431;86;21011;-81
2021/12/21 19:00:14;;;;;;;97.30;41.17;;;;;;;-4.36;80.65;99818.09;4029956;86;21046;-84
2021/12/21 19:06:16;;;;;;;100.83;43.70;;;;;;;-4.29;81.92;99821.33;4033080;86;21491;-80
2021/12/21 19:12:17;;;;;;;92.43;39.70;;;;;;;-4.17;81.75;99825.15;4030803;86;21114;-81
2021/12/21 19:18:18;;;;;;;112.33;45.57;;;;;;;-4.27;81.16;99822.41;4026983;86;22001;-81
2021/12/21 19:31:55;;;;;;;111.93;42.70;;;;;;;-4.28;81.85;99826.16;3983293;88;21073;-81
2021/12/21 19:37:56;;;;;;;104.87;42.90;;;;;;;-4.22;82.08;99835.81;4011145;87;21155;-81
2021/12/21 19:43:59;;;;;;;105.63;41.70;;;;;;;-4.17;82.37;99843.86;4011332;87;21142;-81
2021/12/21 19:50:03;;;;;;;102.63;44.40;;;;;;;-4.08;82.76;99841.78;4012286;87;21047;-81
2021/12/21 19:56:05;;;;;;;106.97;43.87;;;;;;;-3.98;82.95;99844.52;4010997;87;21126;-81
2021/12/21 20:08:48;;;;;;;108.53;43.50;;;;;;;-3.93;82.65;99853.88;4022443;87;21111;-81
2021/12/21 20:14:50;;;;;;;110.33;46.20;;;;;;;-3.87;82.96;99858.75;3846297;87;9999767;-81
2021/12/21 20:20:52;;;;;;;112.27;44.47;;;;;;;-3.84;82.91;99859.03;4029244;87;21421;-81
2021/12/21 20:26:55;;;;;;;116.73;45.90;;;;;;;-3.93;82.32;99861.91;4023173;86;21049;-82
2021/12/21 20:33:02;;;;;;;111.57;40.57;;;;;;;-4.04;82.49;99866.93;4024301;87;21090;-81
2021/12/21 20:39:17;;;;;;;113.03;47.10;;;;;;;-4.06;82.15;99871.75;4005391;86;21035;-81
2021/12/21 20:45:18;;;;;;;111.67;44.17;;;;;;;-4.21;82.69;99864.17;3956079;88;21074;-81
2021/12/21 20:51:20;;;;;;;111.73;46.00;;;;;;;-4.24;82.98;99873.50;3959682;88;21479;-81
2021/12/21 20:57:21;;;;;;;102.27;42.63;;;;;;;-4.25;82.68;99869.74;3959674;89;21719;-81
2021/12/21 21:03:29;;;;;;;106.47;44.70;;;;;;;-4.25;83.12;99875.91;4017275;87;21867;-81
2021/12/21 21:09:35;;;;;;;110.07;47.97;;;;;;;-4.23;83.58;99881.00;3971002;88;21052;-80
2021/12/21 21:15:48;;;;;;;122.43;48.07;;;;;;;-4.11;83.57;99876.25;4024362;87;21049;-80
2021/12/21 21:21:49;;;;;;;121.07;47.67;;;;;;;-4.05;83.78;99881.38;3975302;87;21078;-80
2021/12/21 21:27:52;;;;;;;111.83;47.20;;;;;;;-3.95;83.78;99891.33;4009279;87;21672;-81
2021/12/21 21:33:54;;;;;;;120.43;48.63;;;;;;;-3.91;83.51;99891.89;4018841;87;21060;-81
2021/12/21 21:39:55;;;;;;;117.37;45.93;;;;;;;-3.94;84.07;99895.61;4022716;86;21050;-80
2021/12/21 21:45:56;;;;;;;115.13;48.47;;;;;;;-3.89;83.98;99895.64;4041766;86;21042;-81
2021/12/21 21:51:57;;;;;;;123.37;49.17;;;;;;;-3.88;83.97;99896.72;4031153;86;21035;-80
2021/12/21 21:57:59;;;;;;;139.93;54.73;;;;;;;-3.88;83.71;99899.91;4032195;86;21061;-81
2021/12/21 22:04:03;;;;;;;121.03;50.87;;;;;;;-3.97;83.80;99895.60;4032355;85;21656;-81
2021/12/21 22:10:05;;;;;;;132.97;54.67;;;;;;;-3.97;84.09;99899.61;3983331;88;21704;-80
2021/12/21 22:16:09;;;;;;;129.97;51.80;;;;;;;-3.97;84.08;99898.27;4016813;87;21161;-81
2021/12/21 22:22:10;;;;;;;130.37;53.20;;;;;;;-3.90;84.37;99904.19;4015457;87;21064;-80
2021/12/21 22:28:12;;;;;;;155.90;61.20;;;;;;;-3.87;84.26;99905.55;4018312;87;21590;-80
2021/12/21 22:34:14;;;;;;;147.93;62.17;;;;;;;-3.92;84.31;99908.20;4015980;87;21041;-81
2021/12/21 22:40:16;;;;;;;156.63;62.87;;;;;;;-3.90;84.27;99908.75;4000064;87;21635;-80
2021/12/21 22:46:19;;;;;;;140.40;57.63;;;;;;;-4.03;84.58;99906.52;3989613;87;21130;-81
2021/12/21 22:52:20;;;;;;;125.10;51.40;;;;;;;-4.08;84.48;99901.95;3993809;87;21125;-80
2021/12/21 22:58:21;;;;;;;110.80;43.83;;;;;;;-4.10;84.52;99886.69;3979832;88;21038;-81
2021/12/21 23:04:23;;;;;;;114.50;47.53;;;;;;;-4.15;84.94;99883.98;3959380;89;21595;-80
2021/12/21 23:10:24;;;;;;;108.43;45.17;;;;;;;-4.14;85.02;99892.29;3947444;89;21090;-80
2021/12/21 23:16:27;;;;;;;105.20;40.70;;;;;;;-4.06;85.34;99899.83;3980338;88;21023;-79
2021/12/21 23:22:29;;;;;;;107.23;42.57;;;;;;;-4.01;85.37;99897.72;3946768;89;21602;-80
2021/12/21 23:28:31;;;;;;;98.07;40.53;;;;;;;-3.95;85.51;99898.02;3980610;88;21161;-80
2021/12/21 23:34:32;;;;;;;96.20;38.97;;;;;;;-3.90;85.55;99910.09;3952698;89;21080;-80
2021/12/21 23:40:34;;;;;;;105.27;41.33;;;;;;;-3.88;85.38;99910.09;3972657;88;21139;-80
2021/12/21 23:46:47;;;;;;;98.73;37.47;;;;;;;-3.84;85.51;99913.06;3986133;88;21597;-79
2021/12/21 23:52:49;;;;;;;85.97;38.13;;;;;;;-4.00;85.36;99917.52;3993565;88;21014;-80
2021/12/21 23:58:50;;;;;;;91.13;37.70;;;;;;;-3.91;85.86;99925.33;3993087;88;21569;-80
